Time;durP1;ratioP1;P1;durP2;ratioP2;P2;SDS_P1;SDS_P2;PMS_P1;PMS_P2;Temp;Humidity;BMP_temperature;BMP_pressure;BME280_temperature;BME280_humidity;BME280_pressure;Samples;Min_cycle;Max_cycle;Signal;HPM_P1;HPM_P2
2022/11/17 00:01:38;;;;;;;0.90;0.88;;;17.60;73.60;;;;;;5006925;28;20169;-22
2022/11/17 00:04:04;;;;;;;1.20;1.13;;;17.60;73.50;;;;;;5007814;28;20494;-21
2022/11/17 00:06:29;;;;;;;1.23;1.13;;;17.50;73.80;;;;;;5005988;28;20104;-21
2022/11/17 00:08:55;;;;;;;1.05;1.00;;;17.50;73.90;;;;;;5012829;28;20578;-21
2022/11/17 00:11:21;;;;;;;1.15;0.98;;;17.50;73.90;;;;;;5011928;28;20113;-21
2022/11/17 00:16:30;;;;;;;;;;;17.40;73.90;;;;;;5003333;28;20046;-23
2022/11/17 00:21:40;;;;;;;1.05;0.90;;;17.50;73.70;;;;;;5006800;28;20092;-21
2022/11/17 00:24:06;;;;;;;1.00;0.90;;;17.50;73.70;;;;;;5004616;28;20030;-22
2022/11/17 00:26:32;;;;;;;1.45;1.02;;;17.50;73.80;;;;;;4994832;28;20030;-22
2022/11/17 00:29:03;;;;;;;0.88;0.85;;;17.40;73.80;;;;;;4991146;28;20035;-21
2022/11/17 00:34:16;;;;;;;1.10;0.93;;;17.40;74.00;;;;;;5010502;28;20123;-22
2022/11/17 00:36:43;;;;;;;0.75;0.75;;;17.40;73.90;;;;;;5006012;28;20032;-21
2022/11/17 00:39:09;;;;;;;1.38;1.00;;;17.50;73.70;;;;;;4998314;28;20581;-21
2022/11/17 00:41:34;;;;;;;0.80;0.60;;;17.40;73.90;;;;;;5003258;28;20050;-21
2022/11/17 00:44:00;;;;;;;1.13;0.85;;;17.40;73.80;;;;;;5005827;28;20034;-41
2022/11/17 00:46:26;;;;;;;0.57;0.52;;;17.40;74.00;;;;;;5010353;28;20036;-41
2022/11/17 00:48:51;;;;;;;1.00;0.90;;;17.40;74.00;;;;;;5012987;28;20087;-41
2022/11/17 00:51:17;;;;;;;0.82;0.82;;;17.40;73.90;;;;;;5006165;28;20129;-41
2022/11/17 00:53:43;;;;;;;0.65;0.65;;;17.40;73.80;;;;;;5010604;28;20030;-41
2022/11/17 00:56:08;;;;;;;0.88;0.77;;;17.40;73.90;;;;;;4996711;28;20064;-41
2022/11/17 00:58:35;;;;;;;0.80;0.77;;;17.40;73.90;;;;;;4991869;28;20110;-41
2022/11/17 01:01:01;;;;;;;0.77;0.77;;;17.40;74.00;;;;;;5000459;28;20057;-44
2022/11/17 01:03:26;;;;;;;0.57;0.57;;;17.30;74.00;;;;;;5004526;28;20049;-41
2022/11/17 01:05:52;;;;;;;1.05;0.70;;;17.40;73.80;;;;;;5014363;28;20038;-41
2022/11/17 01:08:17;;;;;;;0.95;0.80;;;17.40;73.80;;;;;;5010450;28;20033;-43
2022/11/17 01:10:43;;;;;;;0.63;0.40;;;17.40;74.50;;;;;;5013503;28;20033;-41
2022/11/17 01:13:08;;;;;;;0.90;0.73;;;17.40;73.80;;;;;;5009352;28;20482;-41
2022/11/17 01:15:34;;;;;;;1.00;0.77;;;17.40;73.60;;;;;;5006604;28;20034;-41
2022/11/17 01:17:59;;;;;;;1.02;0.90;;;17.40;73.50;;;;;;5016352;28;20418;-44
2022/11/17 01:20:25;;;;;;;0.68;0.68;;;17.40;73.70;;;;;;5013784;28;20033;-41
2022/11/17 01:22:53;;;;;;;0.80;0.57;;;17.40;73.60;;;;;;5016140;28;20192;-40
2022/11/17 01:25:18;;;;;;;0.88;0.77;;;17.40;73.40;;;;;;5011689;28;20072;-43
2022/11/17 01:27:44;;;;;;;0.70;0.60;;;17.40;73.50;;;;;;5002846;28;20429;-41
2022/11/17 01:30:11;;;;;;;0.88;0.40;;;17.40;73.60;;;;;;5016244;28;20057;-41
2022/11/17 01:32:36;;;;;;;1.00;0.90;;;17.40;73.70;;;;;;5015075;28;20042;-42
2022/11/17 01:35:02;;;;;;;0.88;0.82;;;17.40;73.70;;;;;;5015858;28;20503;-41
2022/11/17 01:37:28;;;;;;;0.70;0.70;;;17.40;73.60;;;;;;5008721;28;20057;-41
2022/11/17 01:39:53;;;;;;;0.52;0.52;;;17.40;73.60;;;;;;5000185;28;20554;-42
2022/11/17 01:42:20;;;;;;;0.50;0.50;;;17.40;73.70;;;;;;4993751;28;20060;-42
2022/11/17 01:45:02;;;;;;;0.60;0.55;;;17.40;73.50;;;;;;5008553;28;20046;-41
2022/11/17 01:47:33;;;;;;;0.68;0.68;;;17.40;73.40;;;;;;5013434;28;20109;-41
2022/11/17 01:50:05;;;;;;;1.00;0.90;;;17.40;74.20;;;;;;4991606;28;20177;-41
2022/11/17 01:52:30;;;;;;;0.43;0.43;;;17.50;73.20;;;;;;4996631;28;20133;-41
2022/11/17 01:54:56;;;;;;;0.60;0.60;;;17.40;73.40;;;;;;5001168;28;20200;-41
2022/11/17 01:57:32;;;;;;;0.75;0.40;;;17.40;73.90;;;;;;4996178;28;20045;-41
2022/11/17 02:00:00;;;;;;;0.60;0.50;;;17.40;73.30;;;;;;4994052;28;20827;-35
2022/11/17 02:02:26;;;;;;;0.52;0.50;;;17.40;73.20;;;;;;5015105;28;20124;-42
2022/11/17 02:04:59;;;;;;;0.60;0.50;;;17.40;73.00;;;;;;5005121;28;20577;-41
2022/11/17 02:07:29;;;;;;;0.75;0.50;;;17.40;73.00;;;;;;5012318;28;20048;-41
2022/11/17 02:09:54;;;;;;;0.68;0.52;;;17.40;73.20;;;;;;5004119;28;20046;-41
2022/11/17 02:12:20;;;;;;;0.52;0.52;;;17.40;73.10;;;;;;5009678;28;20057;-41
2022/11/17 02:14:48;;;;;;;0.60;0.43;;;17.40;73.00;;;;;;4993800;28;20061;-41
2022/11/17 02:17:13;;;;;;;0.40;0.40;;;17.40;73.10;;;;;;5006599;28;20136;-41
2022/11/17 02:19:39;;;;;;;0.63;0.50;;;17.50;73.20;;;;;;5007467;28;20133;-41
2022/11/17 02:22:17;;;;;;;0.40;0.40;;;17.50;73.00;;;;;;5005929;28;20084;-41
2022/11/17 02:25:10;;;;;;;0.52;0.52;;;17.50;72.90;;;;;;5023552;28;20080;-41
2022/11/17 02:27:51;;;;;;;0.57;0.50;;;17.50;72.90;;;;;;5005577;28;20452;-41
2022/11/17 02:30:18;;;;;;;0.88;0.45;;;17.40;73.00;;;;;;5017448;28;20129;-40
2022/11/17 02:33:03;;;;;;;0.73;0.40;;;17.40;73.00;;;;;;5012617;28;20093;-43
2022/11/17 02:35:38;;;;;;;0.80;0.50;;;17.40;73.00;;;;;;4993832;28;20077;-42
2022/11/17 02:38:16;;;;;;;0.70;0.70;;;17.40;72.80;;;;;;5017606;28;20037;-46
2022/11/17 02:41:02;;;;;;;0.60;0.60;;;17.40;72.80;;;;;;5025677;28;20050;-41
2022/11/17 02:46:20;;;;;;;0.60;0.40;;;17.50;72.70;;;;;;4998803;28;20569;-43
2022/11/17 02:48:53;;;;;;;1.52;0.52;;;17.50;72.80;;;;;;4996535;28;20703;-42
2022/11/17 02:51:20;;;;;;;1.33;0.43;;;17.40;72.70;;;;;;4990582;28;20570;-42
2022/11/17 02:53:47;;;;;;;0.50;0.50;;;17.50;72.70;;;;;;4996273;28;20287;-42
2022/11/17 02:56:13;;;;;;;0.50;0.40;;;17.50;72.80;;;;;;4992815;28;20069;-42
2022/11/17 02:58:38;;;;;;;0.80;0.50;;;17.40;72.80;;;;;;5012806;28;20046;-41
2022/11/17 03:01:34;;;;;;;0.68;0.40;;;17.40;72.80;;;;;;4992533;28;20089;-41
2022/11/17 03:04:03;;;;;;;0.63;0.50;;;17.40;72.90;;;;;;4992993;28;20713;-41
2022/11/17 03:07:03;;;;;;;0.57;0.35;;;17.40;72.90;;;;;;5011519;28;20119;-41
2022/11/17 03:09:40;;;;;;;0.60;0.50;;;17.40;72.90;;;;;;5002812;28;20477;-41
2022/11/17 03:12:09;;;;;;;0.73;0.40;;;17.40;73.00;;;;;;5007754;28;20046;-41
2022/11/17 03:14:45;;;;;;;0.63;0.40;;;17.40;72.90;;;;;;5014793;28;20057;-41
2022/11/17 03:17:27;;;;;;;0.98;0.38;;;17.40;72.90;;;;;;5014604;28;20088;-43
2022/11/17 03:20:07;;;;;;;0.93;0.60;;;17.40;72.80;;;;;;5001165;28;20168;-41
2022/11/17 03:22:41;;;;;;;0.45;0.32;;;17.50;72.60;;;;;;5020827;28;20130;-41
2022/11/17 03:25:07;;;;;;;0.40;0.30;;;17.50;73.30;;;;;;5008232;28;20140;-41
2022/11/17 03:27:36;;;;;;;0.60;0.40;;;17.50;72.70;;;;;;5003468;28;20049;-41
2022/11/17 03:30:04;;;;;;;0.40;0.40;;;17.50;72.70;;;;;;4991643;28;20143;-42
2022/11/17 03:32:31;;;;;;;0.75;0.50;;;17.40;72.80;;;;;;5012196;28;20050;-41
2022/11/17 03:35:27;;;;;;;0.60;0.52;;;17.40;72.90;;;;;;5015489;28;20064;-41
2022/11/17 03:37:55;;;;;;;0.65;0.45;;;17.40;73.10;;;;;;5006590;28;20046;-42
2022/11/17 03:40:23;;;;;;;0.60;0.30;;;17.40;72.90;;;;;;5010165;28;20104;-41
2022/11/17 03:42:52;;;;;;;0.68;0.50;;;17.40;73.00;;;;;;5010347;28;20694;-40
2022/11/17 03:45:21;;;;;;;0.75;0.50;;;17.40;73.20;;;;;;4993301;28;20068;-44
2022/11/17 03:47:52;;;;;;;0.95;0.38;;;17.40;73.00;;;;;;5014708;28;20052;-42
2022/11/17 03:50:23;;;;;;;0.45;0.40;;;17.40;73.30;;;;;;5001400;28;20501;-45
2022/11/17 03:52:49;;;;;;;0.47;0.30;;;17.40;73.40;;;;;;5007548;28;20502;-41
2022/11/17 03:55:14;;;;;;;0.40;0.30;;;17.40;73.40;;;;;;5010223;28;20100;-42
2022/11/17 03:58:11;;;;;;;0.65;0.45;;;17.40;74.20;;;;;;5015605;28;20158;-41
2022/11/17 04:00:36;;;;;;;0.60;0.40;;;17.40;74.20;;;;;;5003097;28;20074;-41
2022/11/17 04:03:02;;;;;;;0.50;0.32;;;17.40;73.20;;;;;;5005119;28;20400;-43
2022/11/17 04:05:28;;;;;;;0.40;0.40;;;17.40;73.50;;;;;;5008688;28;20053;-41
2022/11/17 04:07:53;;;;;;;1.23;0.50;;;17.30;73.50;;;;;;5005909;28;20046;-41
2022/11/17 04:10:20;;;;;;;0.85;0.32;;;17.30;73.40;;;;;;4993751;28;20144;-42
2022/11/17 04:18:18;;;;;;;0.52;0.28;;;17.30;73.50;;;;;;5006573;28;20543;-41
2022/11/17 04:20:44;;;;;;;0.40;0.20;;;17.30;73.40;;;;;;5006683;28;20050;-41
2022/11/17 04:23:12;;;;;;;0.40;0.30;;;17.40;73.30;;;;;;5005645;28;20057;-41
2022/11/17 04:28:36;;;;;;;0.30;0.30;;;17.40;73.30;;;;;;5001919;28;20107;-41
2022/11/17 04:31:19;;;;;;;0.35;0.30;;;17.40;73.40;;;;;;5014754;28;20045;-41
2022/11/17 04:33:52;;;;;;;0.40;0.40;;;17.30;73.40;;;;;;4995161;28;20121;-42
2022/11/17 04:36:22;;;;;;;0.40;0.40;;;17.40;73.50;;;;;;5013530;28;20128;-41
2022/11/17 04:38:49;;;;;;;0.60;0.50;;;17.30;73.50;;;;;;5009210;28;20125;-41
2022/11/17 04:44:00;;;;;;;0.50;0.40;;;17.40;73.50;;;;;;4995266;28;20068;-42
2022/11/17 04:46:26;;;;;;;0.43;0.30;;;17.40;73.30;;;;;;5016445;28;20057;-41
2022/11/17 04:48:53;;;;;;;0.60;0.40;;;17.30;73.30;;;;;;5014920;28;20450;-42
2022/11/17 04:51:18;;;;;;;0.95;0.30;;;17.30;73.30;;;;;;5016305;28;20041;-39
2022/11/17 04:53:44;;;;;;;0.40;0.32;;;17.40;73.20;;;;;;5018495;28;20072;-43
2022/11/17 04:56:09;;;;;;;0.52;0.40;;;17.40;73.20;;;;;;5014449;28;20560;-43
2022/11/17 04:58:35;;;;;;;1.73;0.32;;;17.40;73.20;;;;;;5018615;28;20053;-41
2022/11/17 05:01:13;;;;;;;0.50;0.40;;;17.30;73.20;;;;;;5017961;28;20046;-41
2022/11/17 05:03:45;;;;;;;0.95;0.45;;;17.30;73.30;;;;;;5002919;28;20069;-41
2022/11/17 05:06:14;;;;;;;0.38;0.35;;;17.30;73.50;;;;;;5009152;28;20391;-41
2022/11/17 05:08:40;;;;;;;0.30;0.30;;;17.30;73.50;;;;;;5016612;28;20537;-45
2022/11/17 05:13:50;;;;;;;0.50;0.40;;;17.30;73.30;;;;;;5011123;28;20056;-40
2022/11/17 05:19:00;;;;;;;;;;;17.30;73.40;;;;;;5007530;28;20044;-41
2022/11/17 05:21:25;;;;;;;0.35;0.25;;;17.30;73.50;;;;;;4993481;28;20346;-41
2022/11/17 05:23:54;;;;;;;0.35;0.30;;;17.30;73.30;;;;;;4996094;28;20097;-41
2022/11/17 05:26:24;;;;;;;0.50;0.43;;;17.30;73.20;;;;;;4996868;28;20057;-41
2022/11/17 05:28:49;;;;;;;0.50;0.30;;;17.30;73.40;;;;;;4992738;28;20046;-41
2022/11/17 05:31:15;;;;;;;0.40;0.40;;;17.30;73.30;;;;;;4994887;28;20042;-42
2022/11/17 05:33:41;;;;;;;0.28;0.20;;;17.30;73.10;;;;;;4995497;28;20049;-38
2022/11/17 05:36:09;;;;;;;0.40;0.40;;;17.30;73.20;;;;;;4992692;28;20034;-41
2022/11/17 05:38:34;;;;;;;0.70;0.35;;;17.40;73.00;;;;;;4997043;28;20443;-41
2022/11/17 05:41:00;;;;;;;0.50;0.50;;;17.40;72.70;;;;;;4994318;28;20050;-45
2022/11/17 05:43:25;;;;;;;0.88;0.47;;;17.30;73.10;;;;;;4997421;28;20156;-41
2022/11/17 05:45:51;;;;;;;0.40;0.40;;;17.30;73.20;;;;;;5013645;28;20133;-43
2022/11/17 05:48:17;;;;;;;0.43;0.20;;;17.30;73.00;;;;;;5014998;28;20038;-41
2022/11/17 05:50:42;;;;;;;0.40;0.40;;;17.30;73.10;;;;;;5014783;28;20042;-43
2022/11/17 05:53:08;;;;;;;0.73;0.30;;;17.30;72.80;;;;;;5017139;28;20037;-41
2022/11/17 05:55:34;;;;;;;0.63;0.40;;;17.30;73.20;;;;;;5005975;28;20478;-44
2022/11/17 05:58:08;;;;;;;1.65;0.40;;;17.30;73.60;;;;;;5013276;28;20049;-42
2022/11/17 06:00:34;;;;;;;;;;;17.40;72.90;;;;;;4992842;28;20077;-42
2022/11/17 06:03:03;;;;;;;0.57;0.43;;;17.30;73.00;;;;;;4993854;28;19963;-42
2022/11/17 06:05:29;;;;;;;1.58;0.55;;;17.30;73.00;;;;;;4995660;28;20069;-42
2022/11/17 06:07:57;;;;;;;0.30;0.30;;;17.30;73.10;;;;;;5003341;28;20526;-42
2022/11/17 06:10:22;;;;;;;0.88;0.50;;;17.30;73.20;;;;;;5014181;28;20045;-42
2022/11/17 06:12:48;;;;;;;0.30;0.20;;;17.30;73.20;;;;;;5014192;28;20046;-41
2022/11/17 06:15:13;;;;;;;0.35;0.35;;;17.30;73.30;;;;;;5013166;28;20048;-43
2022/11/17 06:17:48;;;;;;;0.38;0.30;;;17.30;73.20;;;;;;5013402;28;20438;-41
2022/11/17 06:20:18;;;;;;;0.38;0.28;;;17.20;73.30;;;;;;5012890;28;20128;-42
2022/11/17 06:22:44;;;;;;;0.50;0.40;;;17.30;73.30;;;;;;5013454;28;20038;-42
2022/11/17 06:25:09;;;;;;;0.57;0.30;;;17.40;72.80;;;;;;5012724;28;20490;-45
2022/11/17 06:27:35;;;;;;;0.38;0.30;;;17.40;73.30;;;;;;5011753;28;20050;-42
2022/11/17 06:30:02;;;;;;;0.68;0.35;;;17.40;73.60;;;;;;5013019;28;20061;-42
2022/11/17 06:32:28;;;;;;;1.80;0.30;;;17.60;73.10;;;;;;5010454;28;20049;-42
2022/11/17 06:34:53;;;;;;;0.60;0.40;;;17.50;74.00;;;;;;5001893;28;20422;-44
2022/11/17 06:37:19;;;;;;;2.38;0.70;;;17.50;74.80;;;;;;4996502;28;20042;-43
2022/11/17 06:39:44;;;;;;;3.10;0.30;;;17.50;74.00;;;;;;4993549;28;20046;-41
2022/11/17 06:42:10;;;;;;;0.70;0.50;;;17.70;73.40;;;;;;4987018;28;20553;-42
2022/11/17 06:44:36;;;;;;;0.70;0.40;;;17.60;74.80;;;;;;4648300;28;10000102;-13
2022/11/17 06:47:01;;;;;;;0.50;0.30;;;17.60;73.70;;;;;;5000065;28;20035;-13
2022/11/17 06:49:27;;;;;;;1.13;0.45;;;17.70;73.10;;;;;;5005542;28;20030;-13
2022/11/17 06:51:52;;;;;;;1.92;0.50;;;17.80;73.10;;;;;;5004486;28;20037;-13
2022/11/17 06:54:18;;;;;;;1.17;0.50;;;17.80;72.80;;;;;;5012697;28;20034;-13
2022/11/17 06:56:44;;;;;;;0.40;0.22;;;17.70;73.50;;;;;;5011625;28;20631;-13
2022/11/17 06:59:09;;;;;;;0.70;0.43;;;17.60;73.90;;;;;;5007015;28;20037;-15
2022/11/17 07:01:36;;;;;;;0.50;0.40;;;17.50;73.90;;;;;;5009582;28;20120;-12
2022/11/17 07:04:01;;;;;;;1.05;0.40;;;17.50;74.10;;;;;;5009501;28;20065;-13
2022/11/17 07:06:27;;;;;;;1.55;0.30;;;17.50;74.20;;;;;;5007234;28;20123;-13
2022/11/17 07:08:52;;;;;;;0.68;0.50;;;17.40;74.30;;;;;;5010499;28;20041;-13
2022/11/17 07:11:18;;;;;;;2.22;0.30;;;17.50;74.20;;;;;;4655680;28;9999605;-13
2022/11/17 07:13:44;;;;;;;1.45;0.28;;;17.40;74.20;;;;;;5003009;28;20487;-12
2022/11/17 07:16:14;;;;;;;1.95;0.30;;;17.50;73.90;;;;;;5007690;28;20049;-12
2022/11/17 07:18:40;;;;;;;1.17;0.47;;;17.50;74.20;;;;;;5005332;28;20792;-13
2022/11/17 07:21:08;;;;;;;0.35;0.35;;;17.60;73.60;;;;;;5000211;28;20054;-13
2022/11/17 07:23:33;;;;;;;0.85;0.35;;;17.70;73.00;;;;;;5004360;28;20478;-18
2022/11/17 07:25:59;;;;;;;1.67;0.47;;;17.70;72.60;;;;;;5005826;28;20056;-12
2022/11/17 07:28:25;;;;;;;1.30;0.40;;;17.70;73.10;;;;;;5000704;28;20049;-18
2022/11/17 07:30:51;;;;;;;0.73;0.40;;;17.50;73.90;;;;;;5005132;28;20053;-12
2022/11/17 07:33:16;;;;;;;0.85;0.60;;;17.40;74.10;;;;;;5006662;28;20103;-13
2022/11/17 07:35:42;;;;;;;1.50;0.45;;;17.40;73.90;;;;;;5009478;28;20042;-13
2022/11/17 07:38:07;;;;;;;0.70;0.30;;;17.50;73.70;;;;;;5013805;28;20103;-13
2022/11/17 07:40:33;;;;;;;1.15;0.40;;;17.60;73.40;;;;;;5008332;28;20045;-17
2022/11/17 07:42:59;;;;;;;0.75;0.30;;;17.50;73.70;;;;;;5009347;28;20054;-13
2022/11/17 07:45:26;;;;;;;0.50;0.40;;;17.40;74.30;;;;;;5011726;28;20045;-12
2022/11/17 07:47:55;;;;;;;1.55;0.30;;;17.40;73.60;;;;;;5009573;28;20541;-13
2022/11/17 07:50:21;;;;;;;0.50;0.30;;;17.40;73.80;;;;;;5011673;28;20034;-13
2022/11/17 07:52:48;;;;;;;0.88;0.52;;;17.50;74.40;;;;;;5008770;28;20046;-13
2022/11/17 07:55:14;;;;;;;0.88;0.68;;;17.40;73.40;;;;;;5012115;28;20045;-13
2022/11/17 07:57:39;;;;;;;1.30;0.60;;;17.50;73.50;;;;;;5004940;28;20041;-13
2022/11/17 08:00:06;;;;;;;2.22;0.50;;;17.40;73.70;;;;;;5001085;28;20050;-13
2022/11/17 08:02:31;;;;;;;0.60;0.25;;;17.50;73.90;;;;;;5005985;28;20049;-12
2022/11/17 08:04:57;;;;;;;0.30;0.30;;;17.40;73.60;;;;;;5015530;28;20050;-13
2022/11/17 08:07:23;;;;;;;0.38;0.30;;;17.50;73.30;;;;;;5012048;28;20041;-12
2022/11/17 08:09:48;;;;;;;0.70;0.40;;;17.50;73.20;;;;;;4997256;28;20097;-13
2022/11/17 08:12:14;;;;;;;0.73;0.35;;;17.50;73.20;;;;;;5000809;28;20410;-15
2022/11/17 08:14:39;;;;;;;0.63;0.30;;;17.50;74.00;;;;;;5012786;28;20066;-13
2022/11/17 08:17:05;;;;;;;0.40;0.30;;;17.40;73.40;;;;;;4998777;28;20033;-17
2022/11/17 08:19:30;;;;;;;0.40;0.28;;;17.50;73.20;;;;;;4991335;28;20041;-13
2022/11/17 08:21:56;;;;;;;0.60;0.50;;;17.50;73.20;;;;;;4992985;28;20556;-18
2022/11/17 08:24:22;;;;;;;0.60;0.20;;;17.50;73.30;;;;;;4641527;28;10000013;-13
2022/11/17 08:26:47;;;;;;;0.73;0.30;;;17.50;73.20;;;;;;5008555;28;20103;-12
2022/11/17 08:29:13;;;;;;;1.50;0.47;;;17.40;73.30;;;;;;5004467;28;20069;-13
2022/11/17 08:31:44;;;;;;;0.38;0.38;;;17.50;73.20;;;;;;5005666;28;20131;-13
2022/11/17 08:34:10;;;;;;;0.57;0.30;;;17.50;73.10;;;;;;5001132;28;20124;-13
2022/11/17 08:36:35;;;;;;;0.35;0.20;;;17.50;72.90;;;;;;4997255;28;20085;-13
2022/11/17 08:39:01;;;;;;;0.45;0.40;;;17.40;73.10;;;;;;5007368;28;21414;-13
2022/11/17 08:41:28;;;;;;;0.40;0.22;;;17.30;74.00;;;;;;5009431;28;20050;-13
2022/11/17 08:43:54;;;;;;;0.77;0.30;;;17.40;73.70;;;;;;5012870;28;20050;-14
2022/11/17 08:46:19;;;;;;;0.30;0.22;;;17.50;73.20;;;;;;5007015;28;20030;-12
2022/11/17 08:48:45;;;;;;;0.80;0.10;;;17.30;74.30;;;;;;5005024;28;20091;-12
2022/11/17 08:51:11;;;;;;;0.60;0.20;;;17.30;73.60;;;;;;5016902;28;20148;-12
2022/11/17 08:53:36;;;;;;;0.25;0.20;;;17.40;73.60;;;;;;4996864;28;20062;-13
2022/11/17 08:56:09;;;;;;;1.50;0.38;;;17.30;73.70;;;;;;5006861;28;20038;-13
2022/11/17 08:58:41;;;;;;;0.20;0.20;;;17.30;74.00;;;;;;5002476;28;20041;-12
2022/11/17 09:01:10;;;;;;;1.02;0.40;;;17.30;74.10;;;;;;5012924;28;20120;-13
2022/11/17 09:03:36;;;;;;;0.70;0.30;;;17.30;74.10;;;;;;5009665;28;20057;-13
2022/11/17 09:06:03;;;;;;;0.60;0.30;;;17.20;74.00;;;;;;5012096;28;20041;-13
2022/11/17 09:08:29;;;;;;;1.88;0.40;;;17.30;73.90;;;;;;5004253;28;20038;-12
2022/11/17 09:10:54;;;;;;;0.40;0.30;;;17.30;74.00;;;;;;5010122;28;20034;-13
2022/11/17 09:13:20;;;;;;;0.73;0.30;;;17.30;74.60;;;;;;5009393;28;20042;-13
2022/11/17 09:15:46;;;;;;;0.68;0.30;;;17.30;73.60;;;;;;5005408;28;20038;-12
2022/11/17 09:18:11;;;;;;;0.85;0.35;;;17.40;73.40;;;;;;4989157;28;20046;-18
2022/11/17 09:20:37;;;;;;;0.68;0.40;;;17.40;73.40;;;;;;5000460;28;20053;-14
2022/11/17 09:23:02;;;;;;;0.65;0.65;;;17.50;73.00;;;;;;5015173;28;20068;-13
2022/11/17 09:25:28;;;;;;;0.45;0.40;;;17.50;72.80;;;;;;5012016;28;20069;-13
2022/11/17 09:27:54;;;;;;;0.95;0.40;;;17.50;72.80;;;;;;5009077;28;20127;-13
2022/11/17 09:30:21;;;;;;;0.73;0.40;;;17.60;72.30;;;;;;5015221;28;20077;-13
2022/11/17 09:32:48;;;;;;;0.60;0.30;;;17.70;72.20;;;;;;5008292;28;20050;-12
2022/11/17 09:35:13;;;;;;;0.50;0.30;;;17.70;72.10;;;;;;5000209;28;20129;-13
2022/11/17 09:37:39;;;;;;;0.88;0.50;;;17.90;71.70;;;;;;5006420;28;20182;-12
2022/11/17 09:40:05;;;;;;;1.20;0.60;;;18.10;71.20;;;;;;5019162;28;20049;-13
2022/11/17 09:42:35;;;;;;;0.40;0.40;;;18.00;71.30;;;;;;5008395;28;20034;-12
2022/11/17 09:45:03;;;;;;;0.73;0.30;;;18.20;70.70;;;;;;5002394;28;20462;-13
2022/11/17 09:47:39;;;;;;;1.02;0.30;;;18.40;69.90;;;;;;4995393;28;20066;-18
2022/11/17 09:50:26;;;;;;;1.80;0.30;;;18.40;69.80;;;;;;4997265;28;20507;-13
2022/11/17 09:52:59;;;;;;;1.50;0.45;;;18.50;69.70;;;;;;4993785;28;20564;-12
2022/11/17 09:55:29;;;;;;;0.28;0.20;;;18.50;69.70;;;;;;4994261;28;20046;-14
2022/11/17 09:58:07;;;;;;;0.57;0.30;;;18.50;69.70;;;;;;4993358;28;20049;-14
2022/11/17 10:00:33;;;;;;;0.52;0.30;;;18.40;69.70;;;;;;4992883;28;20149;-13
2022/11/17 10:02:59;;;;;;;0.40;0.30;;;18.30;70.20;;;;;;4990340;28;20498;-13
2022/11/17 10:05:28;;;;;;;0.75;0.22;;;18.30;70.30;;;;;;4985261;28;20050;-14
2022/11/17 10:08:15;;;;;;;0.43;0.38;;;18.40;70.00;;;;;;4999783;28;20046;-13
2022/11/17 10:10:48;;;;;;;0.40;0.40;;;18.30;70.10;;;;;;4994273;28;20552;-14
2022/11/17 10:13:25;;;;;;;0.30;0.20;;;18.20;70.70;;;;;;4989616;28;20043;-14
2022/11/17 10:15:56;;;;;;;0.57;0.28;;;18.10;71.20;;;;;;4978343;28;20042;-13
2022/11/17 10:18:22;;;;;;;0.55;0.38;;;18.00;71.60;;;;;;4992737;28;20042;-13
2022/11/17 10:20:47;;;;;;;0.50;0.20;;;17.80;72.00;;;;;;4994233;28;20095;-13
2022/11/17 10:23:16;;;;;;;0.30;0.10;;;17.70;72.70;;;;;;4993429;28;20423;-13
2022/11/17 10:25:43;;;;;;;0.60;0.38;;;17.80;72.30;;;;;;5002946;28;20058;-13
2022/11/17 10:28:28;;;;;;;1.90;0.40;;;17.70;72.50;;;;;;4994202;28;20075;-14
2022/11/17 10:31:01;;;;;;;0.57;0.40;;;17.70;73.00;;;;;;4984873;28;20053;-13
2022/11/17 10:33:44;;;;;;;0.70;0.40;;;17.80;72.40;;;;;;4990911;28;20080;-15
2022/11/17 10:36:20;;;;;;;0.38;0.28;;;17.70;72.30;;;;;;4993456;28;20285;-13
2022/11/17 10:38:53;;;;;;;1.00;0.35;;;17.80;72.80;;;;;;4991967;28;20058;-14
2022/11/17 10:41:31;;;;;;;0.63;0.38;;;17.80;72.40;;;;;;4996060;28;20058;-14
2022/11/17 10:44:01;;;;;;;1.17;0.52;;;17.80;72.50;;;;;;5007747;28;20097;-14
2022/11/17 10:46:26;;;;;;;0.45;0.40;;;17.80;72.50;;;;;;5029668;28;20072;-13
2022/11/17 10:48:59;;;;;;;0.98;0.60;;;17.70;72.80;;;;;;5008474;28;20074;-13
2022/11/17 10:51:31;;;;;;;0.70;0.50;;;17.80;73.00;;;;;;5007736;28;20125;-14
2022/11/17 10:54:05;;;;;;;0.50;0.40;;;17.80;73.10;;;;;;4300370;28;10001061;-13
2022/11/17 10:56:33;;;;;;;1.88;0.90;;;17.80;73.70;;;;;;4990432;28;20037;-13
2022/11/17 10:59:14;;;;;;;2.00;0.95;;;18.10;73.70;;;;;;5004489;28;20058;-13
2022/11/17 11:01:44;;;;;;;1.17;0.70;;;18.30;73.00;;;;;;5008425;28;20161;-13
2022/11/17 11:04:40;;;;;;;1.63;0.90;;;18.20;72.60;;;;;;5009658;28;20511;-13
2022/11/17 11:07:13;;;;;;;1.55;0.80;;;18.00;73.70;;;;;;4998468;28;20510;-13
2022/11/17 11:09:52;;;;;;;1.02;0.95;;;18.10;74.50;;;;;;4989463;28;20033;-14
2022/11/17 11:12:40;;;;;;;2.67;1.08;;;18.10;73.90;;;;;;4988047;28;20061;-13
2022/11/17 11:15:08;;;;;;;2.60;0.95;;;18.20;73.70;;;;;;5010040;28;20049;-13
2022/11/17 11:17:33;;;;;;;1.73;1.40;;;18.00;73.80;;;;;;5008246;28;20565;-13
2022/11/17 11:19:59;;;;;;;0.93;0.75;;;18.00;74.20;;;;;;5010278;28;20057;-13
2022/11/17 11:22:35;;;;;;;1.10;0.90;;;17.90;74.10;;;;;;5005697;28;20062;-19
2022/11/17 11:25:28;;;;;;;1.33;1.00;;;18.00;74.20;;;;;;5006905;28;20053;-13
2022/11/17 11:27:57;;;;;;;0.98;0.75;;;18.10;74.00;;;;;;5046515;28;20502;-14
2022/11/17 11:30:22;;;;;;;1.85;1.10;;;18.10;73.70;;;;;;5002919;28;20050;-15
2022/11/17 11:33:21;;;;;;;1.15;0.82;;;18.10;73.10;;;;;;4990180;28;20125;-14
2022/11/17 11:36:13;;;;;;;1.17;0.85;;;18.10;73.50;;;;;;4990243;28;20054;-13
2022/11/17 11:39:10;;;;;;;1.45;0.70;;;18.00;73.60;;;;;;4990319;28;20038;-13
2022/11/17 11:41:42;;;;;;;1.05;0.65;;;18.10;74.30;;;;;;4997471;28;20134;-13
2022/11/17 11:44:34;;;;;;;1.00;0.68;;;18.10;73.70;;;;;;4996230;28;20067;-13
2022/11/17 11:47:12;;;;;;;1.08;0.82;;;18.10;73.50;;;;;;4998282;28;20522;-14
2022/11/17 11:49:55;;;;;;;0.77;0.60;;;18.20;73.60;;;;;;4989596;28;20137;-13
2022/11/17 11:52:23;;;;;;;0.60;0.57;;;18.00;73.90;;;;;;5000746;28;20510;-13
2022/11/17 11:54:59;;;;;;;2.33;0.50;;;18.00;74.80;;;;;;4992619;28;20100;-13
2022/11/17 11:57:32;;;;;;;2.20;0.77;;;17.90;74.20;;;;;;4990835;28;20073;-13
2022/11/17 12:00:00;;;;;;;0.90;0.60;;;17.90;74.30;;;;;;4988127;28;20084;-13
2022/11/17 12:02:49;;;;;;;1.65;0.75;;;17.90;74.20;;;;;;4990100;28;20042;-14
2022/11/17 12:05:33;;;;;;;3.40;0.93;;;17.90;74.10;;;;;;5000299;28;20053;-13
2022/11/17 12:08:31;;;;;;;1.85;0.60;;;17.90;74.00;;;;;;5002442;28;20061;-14
2022/11/17 12:11:58;;;;;;;0.77;0.40;;;17.90;74.00;;;;;;5005148;28;20069;-13
2022/11/17 12:13:46;;;;;;;2.60;0.70;;;17.90;74.50;;;;;;5021953;28;20088;-14
2022/11/17 12:16:41;;;;;;;1.45;0.80;;;18.10;73.30;;;;;;5001109;28;20449;-13
2022/11/17 12:19:46;;;;;;;0.80;0.50;;;18.00;73.60;;;;;;5003421;28;20132;-13
2022/11/17 12:22:17;;;;;;;2.42;0.40;;;17.90;74.00;;;;;;5000690;28;20053;-14
2022/11/17 12:24:42;;;;;;;0.93;0.60;;;17.90;73.60;;;;;;5041022;28;20053;-14
2022/11/17 12:27:33;;;;;;;1.48;0.55;;;18.20;72.60;;;;;;4997217;28;20041;-19
2022/11/17 12:29:59;;;;;;;1.45;0.60;;;18.40;71.90;;;;;;5004923;28;20056;-13
2022/11/17 12:32:43;;;;;;;1.38;0.50;;;18.30;72.30;;;;;;4989970;28;20550;-13
2022/11/17 12:35:30;;;;;;;0.95;0.50;;;18.30;72.60;;;;;;5003923;28;20058;-14
2022/11/17 12:38:14;;;;;;;3.35;0.40;;;18.10;73.00;;;;;;5002443;28;21710;-13
2022/11/17 12:40:49;;;;;;;0.80;0.40;;;18.00;73.40;;;;;;5001809;28;20041;-13
2022/11/17 12:43:15;;;;;;;5.38;0.68;;;18.10;72.90;;;;;;5008501;28;20530;-13
2022/11/17 12:45:58;;;;;;;1.83;0.57;;;18.10;73.90;;;;;;4997287;28;20124;-18
2022/11/17 12:48:38;;;;;;;1.97;0.50;;;17.90;73.50;;;;;;4988775;28;20660;-13
2022/11/17 12:51:29;;;;;;;0.57;0.40;;;17.90;73.90;;;;;;4989415;28;20535;-13
2022/11/17 12:54:02;;;;;;;0.68;0.30;;;17.80;74.00;;;;;;5020947;28;20042;-13
2022/11/17 12:56:50;;;;;;;1.13;0.43;;;17.80;74.00;;;;;;5015689;28;20417;-13
2022/11/17 12:59:19;;;;;;;0.35;0.35;;;17.80;73.90;;;;;;5040895;28;20038;-13
2022/11/17 13:01:54;;;;;;;1.38;0.40;;;17.80;73.60;;;;;;5003555;28;20081;-13
2022/11/17 13:04:24;;;;;;;2.05;0.45;;;17.90;73.70;;;;;;5007079;28;20506;-12
2022/11/17 13:07:06;;;;;;;1.45;0.32;;;17.80;74.60;;;;;;5013990;28;20049;-12
2022/11/17 13:09:35;;;;;;;0.40;0.35;;;17.80;74.60;;;;;;5015592;28;20021;-16
2022/11/17 13:12:05;;;;;;;0.63;0.55;;;17.80;73.90;;;;;;4998953;28;20085;-13
2022/11/17 13:14:31;;;;;;;0.55;0.43;;;17.80;73.90;;;;;;4997200;28;20049;-14
2022/11/17 13:16:58;;;;;;;0.30;0.30;;;17.70;73.80;;;;;;4999425;28;20057;-12
2022/11/17 13:19:33;;;;;;;0.88;0.38;;;17.70;73.80;;;;;;4994336;28;20038;-13
2022/11/17 13:22:00;;;;;;;0.80;0.50;;;17.80;73.80;;;;;;4995074;28;20050;-14
2022/11/17 13:24:31;;;;;;;0.55;0.45;;;17.70;73.70;;;;;;4990137;28;20051;-13
2022/11/17 13:27:00;;;;;;;0.30;0.30;;;17.70;73.70;;;;;;4993842;28;20038;-12
2022/11/17 13:29:26;;;;;;;0.60;0.32;;;17.70;73.10;;;;;;4996402;28;20038;-13
2022/11/17 13:32:15;;;;;;;0.43;0.43;;;17.70;73.80;;;;;;4995729;28;20034;-12